sensor_id;sensor_type;location;lat;lon;timestamp;P1;durP1;ratioP1;P2;durP2;ratioP2
35757;SDS011;21879;50.110;18.900;2022-12-07T00:02:55;18.80;;;12.10;;
35757;SDS011;21879;50.110;18.900;2022-12-07T00:13:23;20.70;;;12.20;;
35757;SDS011;21879;50.110;18.900;2022-12-07T00:23:51;20.70;;;12.30;;
35757;SDS011;21879;50.110;18.900;2022-12-07T00:44:46;18.70;;;11.00;;
35757;SDS011;21879;50.110;18.900;2022-12-07T00:55:13;16.90;;;10.30;;
35757;SDS011;21879;50.110;18.900;2022-12-07T01:05:41;19.80;;;12.40;;
35757;SDS011;21879;50.110;18.900;2022-12-07T01:16:17;20.00;;;12.10;;
35757;SDS011;21879;50.110;18.900;2022-12-07T01:26:45;17.40;;;10.20;;
35757;SDS011;21879;50.110;18.900;2022-12-07T01:37:16;17.90;;;10.50;;
35757;SDS011;21879;50.110;18.900;2022-12-07T01:47:45;17.00;;;10.50;;
35757;SDS011;21879;50.110;18.900;2022-12-07T01:58:16;13.00;;;8.90;;
35757;SDS011;21879;50.110;18.900;2022-12-07T02:08:43;14.60;;;10.00;;
35757;SDS011;21879;50.110;18.900;2022-12-07T02:30:28;17.40;;;10.60;;
35757;SDS011;21879;50.110;18.900;2022-12-07T02:41:00;16.10;;;10.30;;
35757;SDS011;21879;50.110;18.900;2022-12-07T02:51:32;17.10;;;10.80;;
35757;SDS011;21879;50.110;18.900;2022-12-07T03:02:01;17.10;;;10.20;;
35757;SDS011;21879;50.110;18.900;2022-12-07T03:12:39;14.10;;;9.10;;
35757;SDS011;21879;50.110;18.900;2022-12-07T03:23:12;17.70;;;10.60;;
35757;SDS011;21879;50.110;18.900;2022-12-07T03:33:44;15.80;;;9.10;;
35757;SDS011;21879;50.110;18.900;2022-12-07T03:44:18;13.10;;;8.50;;
35757;SDS011;21879;50.110;18.900;2022-12-07T03:54:48;9.10;;;6.30;;
35757;SDS011;21879;50.110;18.900;2022-12-07T04:05:22;12.30;;;7.50;;
35757;SDS011;21879;50.110;18.900;2022-12-07T04:15:49;10.10;;;6.00;;
35757;SDS011;21879;50.110;18.900;2022-12-07T04:26:17;10.60;;;6.50;;
35757;SDS011;21879;50.110;18.900;2022-12-07T04:36:44;13.00;;;8.40;;
35757;SDS011;21879;50.110;18.900;2022-12-07T04:57:39;14.10;;;8.70;;
35757;SDS011;21879;50.110;18.900;2022-12-07T05:08:06;12.80;;;7.70;;
35757;SDS011;21879;50.110;18.900;2022-12-07T05:18:34;16.30;;;8.60;;
35757;SDS011;21879;50.110;18.900;2022-12-07T05:29:01;16.20;;;8.30;;
35757;SDS011;21879;50.110;18.900;2022-12-07T05:39:29;15.20;;;10.20;;
35757;SDS011;21879;50.110;18.900;2022-12-07T05:49:57;12.50;;;6.70;;
35757;SDS011;21879;50.110;18.900;2022-12-07T06:00:25;11.70;;;6.30;;
35757;SDS011;21879;50.110;18.900;2022-12-07T06:10:53;11.80;;;6.90;;
35757;SDS011;21879;50.110;18.900;2022-12-07T06:21:34;11.40;;;6.70;;
35757;SDS011;21879;50.110;18.900;2022-12-07T06:32:02;13.30;;;8.30;;
35757;SDS011;21879;50.110;18.900;2022-12-07T06:42:30;14.90;;;9.00;;
35757;SDS011;21879;50.110;18.900;2022-12-07T06:52:58;16.00;;;9.80;;
35757;SDS011;21879;50.110;18.900;2022-12-07T07:03:25;26.30;;;17.00;;
35757;SDS011;21879;50.110;18.900;2022-12-07T07:13:53;18.40;;;11.40;;
35757;SDS011;21879;50.110;18.900;2022-12-07T07:24:26;18.00;;;11.90;;
35757;SDS011;21879;50.110;18.900;2022-12-07T07:34:54;18.10;;;11.20;;
35757;SDS011;21879;50.110;18.900;2022-12-07T07:45:21;17.50;;;11.60;;
35757;SDS011;21879;50.110;18.900;2022-12-07T07:55:54;18.70;;;11.80;;
35757;SDS011;21879;50.110;18.900;2022-12-07T08:06:21;19.30;;;10.50;;
35757;SDS011;21879;50.110;18.900;2022-12-07T08:16:55;14.50;;;9.60;;
35757;SDS011;21879;50.110;18.900;2022-12-07T08:27:23;14.10;;;10.40;;
35757;SDS011;21879;50.110;18.900;2022-12-07T08:37:51;27.30;;;12.00;;
35757;SDS011;21879;50.110;18.900;2022-12-07T08:48:19;10.10;;;6.60;;
35757;SDS011;21879;50.110;18.900;2022-12-07T08:58:48;13.70;;;11.00;;
35757;SDS011;21879;50.110;18.900;2022-12-07T09:09:16;14.00;;;9.50;;
35757;SDS011;21879;50.110;18.900;2022-12-07T09:19:43;16.30;;;12.50;;
35757;SDS011;21879;50.110;18.900;2022-12-07T09:30:11;15.80;;;10.10;;
35757;SDS011;21879;50.110;18.900;2022-12-07T09:40:39;15.70;;;9.90;;
35757;SDS011;21879;50.110;18.900;2022-12-07T09:51:12;14.40;;;9.90;;
35757;SDS011;21879;50.110;18.900;2022-12-07T10:01:49;13.60;;;7.30;;
35757;SDS011;21879;50.110;18.900;2022-12-07T10:22:55;16.80;;;8.90;;
35757;SDS011;21879;50.110;18.900;2022-12-07T10:33:33;10.80;;;7.20;;
35757;SDS011;21879;50.110;18.900;2022-12-07T10:44:02;9.00;;;6.30;;
35757;SDS011;21879;50.110;18.900;2022-12-07T10:54:31;14.30;;;8.50;;
35757;SDS011;21879;50.110;18.900;2022-12-07T11:05:15;9.00;;;4.40;;
35757;SDS011;21879;50.110;18.900;2022-12-07T11:15:51;6.30;;;3.90;;
35757;SDS011;21879;50.110;18.900;2022-12-07T11:26:33;13.80;;;8.60;;
35757;SDS011;21879;50.110;18.900;2022-12-07T11:47:38;6.70;;;4.40;;
35757;SDS011;21879;50.110;18.900;2022-12-07T11:58:18;10.00;;;4.90;;
35757;SDS011;21879;50.110;18.900;2022-12-07T12:08:58;7.90;;;4.90;;
35757;SDS011;21879;50.110;18.900;2022-12-07T12:19:58;7.80;;;4.60;;
35757;SDS011;21879;50.110;18.900;2022-12-07T12:40:59;7.20;;;4.50;;
35757;SDS011;21879;50.110;18.900;2022-12-07T13:02:16;6.30;;;4.10;;
35757;SDS011;21879;50.110;18.900;2022-12-07T13:12:56;6.90;;;3.80;;
35757;SDS011;21879;50.110;18.900;2022-12-07T13:23:25;7.30;;;3.40;;
35757;SDS011;21879;50.110;18.900;2022-12-07T13:33:55;5.90;;;3.10;;
35757;SDS011;21879;50.110;18.900;2022-12-07T13:44:24;6.80;;;4.00;;
35757;SDS011;21879;50.110;18.900;2022-12-07T13:54:57;6.00;;;3.60;;
35757;SDS011;21879;50.110;18.900;2022-12-07T14:05:27;9.30;;;4.80;;
35757;SDS011;21879;50.110;18.900;2022-12-07T14:15:56;7.10;;;3.30;;
35757;SDS011;21879;50.110;18.900;2022-12-07T14:26:24;5.50;;;3.40;;
35757;SDS011;21879;50.110;18.900;2022-12-07T14:36:52;9.50;;;4.90;;
35757;SDS011;21879;50.110;18.900;2022-12-07T14:47:19;9.50;;;4.10;;
35757;SDS011;21879;50.110;18.900;2022-12-07T14:58:09;9.40;;;5.00;;
35757;SDS011;21879;50.110;18.900;2022-12-07T15:08:40;11.10;;;5.40;;
35757;SDS011;21879;50.110;18.900;2022-12-07T15:19:11;8.90;;;4.10;;
35757;SDS011;21879;50.110;18.900;2022-12-07T15:29:52;9.40;;;4.60;;
35757;SDS011;21879;50.110;18.900;2022-12-07T15:40:19;9.90;;;6.50;;
35757;SDS011;21879;50.110;18.900;2022-12-07T15:50:47;15.20;;;7.30;;
35757;SDS011;21879;50.110;18.900;2022-12-07T16:01:15;8.40;;;5.40;;
35757;SDS011;21879;50.110;18.900;2022-12-07T16:11:44;12.20;;;5.90;;
35757;SDS011;21879;50.110;18.900;2022-12-07T16:22:11;10.90;;;5.70;;
35757;SDS011;21879;50.110;18.900;2022-12-07T16:32:39;10.30;;;4.70;;
35757;SDS011;21879;50.110;18.900;2022-12-07T16:43:06;13.60;;;7.20;;
35757;SDS011;21879;50.110;18.900;2022-12-07T16:53:35;13.50;;;7.20;;
35757;SDS011;21879;50.110;18.900;2022-12-07T17:04:04;15.20;;;7.90;;
35757;SDS011;21879;50.110;18.900;2022-12-07T17:14:33;17.10;;;9.20;;
35757;SDS011;21879;50.110;18.900;2022-12-07T17:25:18;17.00;;;11.00;;
35757;SDS011;21879;50.110;18.900;2022-12-07T17:35:46;17.00;;;11.50;;
35757;SDS011;21879;50.110;18.900;2022-12-07T17:46:14;15.00;;;7.40;;
35757;SDS011;21879;50.110;18.900;2022-12-07T17:56:41;12.80;;;7.30;;
35757;SDS011;21879;50.110;18.900;2022-12-07T18:07:10;14.70;;;8.50;;
35757;SDS011;21879;50.110;18.900;2022-12-07T18:17:38;14.30;;;11.10;;
35757;SDS011;21879;50.110;18.900;2022-12-07T18:28:07;19.30;;;10.10;;
35757;SDS011;21879;50.110;18.900;2022-12-07T18:38:34;12.10;;;7.40;;
35757;SDS011;21879;50.110;18.900;2022-12-07T18:49:03;14.10;;;7.30;;
35757;SDS011;21879;50.110;18.900;2022-12-07T18:59:31;12.50;;;7.40;;
35757;SDS011;21879;50.110;18.900;2022-12-07T19:10:14;12.10;;;7.60;;
35757;SDS011;21879;50.110;18.900;2022-12-07T19:20:41;12.30;;;7.20;;
35757;SDS011;21879;50.110;18.900;2022-12-07T19:31:10;14.70;;;7.70;;
35757;SDS011;21879;50.110;18.900;2022-12-07T19:52:06;12.80;;;7.40;;
35757;SDS011;21879;50.110;18.900;2022-12-07T20:02:35;12.40;;;8.10;;
35757;SDS011;21879;50.110;18.900;2022-12-07T20:13:03;11.20;;;6.60;;
35757;SDS011;21879;50.110;18.900;2022-12-07T20:23:48;10.30;;;6.10;;
35757;SDS011;21879;50.110;18.900;2022-12-07T20:34:16;12.60;;;7.70;;
35757;SDS011;21879;50.110;18.900;2022-12-07T20:44:43;20.10;;;11.50;;
35757;SDS011;21879;50.110;18.900;2022-12-07T20:55:11;15.50;;;9.40;;
35757;SDS011;21879;50.110;18.900;2022-12-07T21:05:39;13.80;;;8.70;;
35757;SDS011;21879;50.110;18.900;2022-12-07T21:16:15;15.00;;;8.10;;
35757;SDS011;21879;50.110;18.900;2022-12-07T21:26:44;15.00;;;7.40;;
35757;SDS011;21879;50.110;18.900;2022-12-07T21:37:13;13.00;;;7.20;;
35757;SDS011;21879;50.110;18.900;2022-12-07T21:47:40;15.30;;;9.00;;
35757;SDS011;21879;50.110;18.900;2022-12-07T21:58:08;19.40;;;10.50;;
35757;SDS011;21879;50.110;18.900;2022-12-07T22:08:35;14.50;;;9.00;;
35757;SDS011;21879;50.110;18.900;2022-12-07T22:19:03;15.70;;;8.20;;
35757;SDS011;21879;50.110;18.900;2022-12-07T22:29:31;14.40;;;7.80;;
35757;SDS011;21879;50.110;18.900;2022-12-07T22:39:58;12.80;;;7.90;;
35757;SDS011;21879;50.110;18.900;2022-12-07T22:50:25;15.30;;;8.60;;
35757;SDS011;21879;50.110;18.900;2022-12-07T23:00:53;16.40;;;9.60;;
35757;SDS011;21879;50.110;18.900;2022-12-07T23:11:22;20.70;;;11.30;;
35757;SDS011;21879;50.110;18.900;2022-12-07T23:22:09;14.80;;;8.90;;
35757;SDS011;21879;50.110;18.900;2022-12-07T23:32:37;17.30;;;10.00;;
35757;SDS011;21879;50.110;18.900;2022-12-07T23:43:04;14.50;;;8.40;;
35757;SDS011;21879;50.110;18.900;2022-12-07T23:53:32;12.30;;;7.60;;
